Time;durP1;ratioP1;P1;durP2;ratioP2;P2;SDS_P1;SDS_P2;PMS_P1;PMS_P2;Temp;Humidity;BMP_temperature;BMP_pressure;BME280_temperature;BME280_humidity;BME280_pressure;Samples;Min_cycle;Max_cycle;Signal;HPM_P1;HPM_P2
2021/04/02 00:01:37;;;;;;;25.20;14.13;;;11.50;99.90;;;;;;477534;249;28376;-74
2021/04/02 00:03:39;;;;;;;29.97;15.07;;;11.40;99.90;;;;;;475273;250;28780;-74
2021/04/02 00:05:40;;;;;;;24.53;14.00;;;11.40;99.90;;;;;;477817;248;28427;-73
2021/04/02 00:07:41;;;;;;;24.40;13.77;;;11.30;99.90;;;;;;474811;249;28824;-74
2021/04/02 00:09:42;;;;;;;21.87;12.90;;;11.20;99.90;;;;;;477740;243;28230;-74
2021/04/02 00:11:44;;;;;;;21.63;11.80;;;11.20;99.90;;;;;;475194;250;28181;-74
2021/04/02 00:13:46;;;;;;;19.03;12.50;;;11.10;99.90;;;;;;477689;248;28829;-73
2021/04/02 00:15:46;;;;;;;23.50;11.40;;;11.10;99.90;;;;;;483086;245;28408;-73
2021/04/02 00:17:47;;;;;;;24.90;12.57;;;11.10;99.90;;;;;;477821;249;28250;-74
2021/04/02 00:19:49;;;;;;;24.60;11.20;;;11.00;99.90;;;;;;474863;249;28951;-74
2021/04/02 00:21:50;;;;;;;23.90;11.00;;;10.90;99.90;;;;;;477729;249;29078;-73
2021/04/02 00:23:51;;;;;;;18.20;10.87;;;10.80;99.90;;;;;;475200;250;28528;-74
2021/04/02 00:25:53;;;;;;;15.23;10.03;;;10.80;99.90;;;;;;477701;248;28351;-74
2021/04/02 00:27:54;;;;;;;17.57;10.80;;;10.80;99.90;;;;;;474759;249;28757;-74
2021/04/02 00:29:55;;;;;;;16.40;10.40;;;10.80;99.90;;;;;;477660;249;28240;-73
2021/04/02 00:31:56;;;;;;;15.27;10.20;;;10.70;99.90;;;;;;475256;250;28000;-74
2021/04/02 00:33:58;;;;;;;16.97;9.40;;;10.70;99.90;;;;;;477734;248;28689;-73
2021/04/02 00:35:59;;;;;;;17.13;9.90;;;10.70;99.90;;;;;;474818;249;28913;-74
2021/04/02 00:38:00;;;;;;;15.87;9.47;;;10.60;99.90;;;;;;477736;249;28899;-73
2021/04/02 00:40:01;;;;;;;19.70;10.40;;;10.50;99.90;;;;;;475222;250;28133;-73
2021/04/02 00:42:03;;;;;;;18.93;9.83;;;10.50;99.90;;;;;;477743;248;28116;-74
2021/04/02 00:44:04;;;;;;;22.40;9.17;;;10.50;99.90;;;;;;474846;249;28070;-73
2021/04/02 00:46:05;;;;;;;14.50;8.50;;;10.40;99.90;;;;;;477682;249;28228;-73
2021/04/02 00:48:06;;;;;;;12.07;7.70;;;10.30;99.90;;;;;;474623;250;28143;-73
2021/04/02 00:50:08;;;;;;;12.57;7.40;;;10.30;99.90;;;;;;477226;247;28260;-74
2021/04/02 00:52:09;;;;;;;12.90;7.47;;;10.20;99.90;;;;;;474484;249;28371;-73
2021/04/02 00:54:10;;;;;;;15.57;7.83;;;10.20;99.90;;;;;;477445;249;29010;-73
2021/04/02 00:56:11;;;;;;;17.60;7.83;;;10.10;99.90;;;;;;475218;250;28120;-73
2021/04/02 00:58:13;;;;;;;12.37;7.87;;;10.20;99.90;;;;;;477822;248;28069;-74
2021/04/02 01:00:14;;;;;;;10.83;7.23;;;10.20;99.90;;;;;;475014;250;27959;-73
2021/04/02 01:02:15;;;;;;;10.30;6.80;;;10.10;99.90;;;;;;483186;246;27952;-74
2021/04/02 01:04:16;;;;;;;16.13;7.07;;;10.10;99.90;;;;;;477954;249;27728;-74
2021/04/02 01:06:18;;;;;;;23.93;8.43;;;10.10;99.90;;;;;;475012;249;28014;-73
2021/04/02 01:08:19;;;;;;;12.03;7.17;;;10.00;99.90;;;;;;477808;247;28025;-74
2021/04/02 01:10:20;;;;;;;14.37;9.10;;;10.00;99.90;;;;;;475257;250;28631;-74
2021/04/02 01:12:21;;;;;;;12.23;8.10;;;9.90;99.90;;;;;;477746;248;30823;-74
2021/04/02 01:14:23;;;;;;;15.20;8.20;;;9.80;99.90;;;;;;474858;249;27959;-73
2021/04/02 01:16:24;;;;;;;15.27;8.73;;;9.80;99.90;;;;;;477771;249;28016;-74
2021/04/02 01:18:25;;;;;;;12.37;7.57;;;9.70;99.90;;;;;;475184;250;28030;-74
2021/04/02 01:20:26;;;;;;;14.67;7.20;;;9.60;99.90;;;;;;477697;248;27992;-73
2021/04/02 01:22:28;;;;;;;13.07;8.47;;;9.50;99.90;;;;;;474785;249;28292;-73
2021/04/02 01:24:29;;;;;;;11.33;7.43;;;9.40;99.90;;;;;;477763;249;27787;-74
2021/04/02 01:26:30;;;;;;;16.07;8.57;;;9.40;99.90;;;;;;475247;250;27829;-74
2021/04/02 01:28:31;;;;;;;13.07;7.13;;;9.40;99.90;;;;;;477726;248;28025;-74
2021/04/02 01:30:33;;;;;;;11.07;6.93;;;9.40;99.90;;;;;;474799;249;28112;-74
2021/04/02 01:32:34;;;;;;;13.70;7.83;;;9.20;99.90;;;;;;477751;249;29510;-74
2021/04/02 01:34:35;;;;;;;10.70;6.40;;;9.10;99.90;;;;;;475260;250;28352;-73
2021/04/02 01:36:36;;;;;;;7.93;5.70;;;9.00;99.90;;;;;;477918;249;28376;-73
2021/04/02 01:38:38;;;;;;;8.50;6.17;;;8.90;99.90;;;;;;474792;249;28534;-74
2021/04/02 01:40:39;;;;;;;11.00;6.00;;;8.80;99.90;;;;;;477755;249;27995;-73
2021/04/02 01:42:40;;;;;;;16.53;5.90;;;8.80;99.90;;;;;;475365;250;27803;-73
2021/04/02 01:44:41;;;;;;;9.00;5.87;;;8.70;99.90;;;;;;477905;248;28040;-73
2021/04/02 01:46:43;;;;;;;8.40;6.07;;;8.60;99.90;;;;;;474904;249;28182;-73
2021/04/02 01:48:44;;;;;;;9.00;5.57;;;8.60;99.90;;;;;;477738;249;27984;-73
2021/04/02 01:50:45;;;;;;;9.80;6.23;;;8.60;99.90;;;;;;475058;250;28001;-73
2021/04/02 01:52:46;;;;;;;8.80;5.73;;;8.50;99.90;;;;;;477774;248;27994;-73
2021/04/02 01:54:48;;;;;;;7.70;5.70;;;8.40;99.90;;;;;;474860;249;28206;-74
2021/04/02 01:56:50;;;;;;;12.50;5.83;;;8.40;99.90;;;;;;477770;249;28087;-73
2021/04/02 01:58:50;;;;;;;10.40;5.67;;;8.30;99.90;;;;;;482947;246;28140;-73
2021/04/02 02:00:51;;;;;;;13.57;6.07;;;8.30;99.90;;;;;;477749;249;27947;-73
2021/04/02 02:02:53;;;;;;;10.70;5.80;;;8.20;99.90;;;;;;474965;249;28561;-73
2021/04/02 02:04:54;;;;;;;11.10;5.30;;;8.20;99.90;;;;;;477938;249;28509;-73
2021/04/02 02:06:55;;;;;;;8.57;5.03;;;8.20;99.90;;;;;;475368;250;28411;-73
2021/04/02 02:08:56;;;;;;;7.80;5.43;;;8.20;99.90;;;;;;477666;248;28495;-74
2021/04/02 02:10:58;;;;;;;12.47;6.30;;;8.20;99.90;;;;;;474028;249;28056;-73
2021/04/02 02:12:59;;;;;;;12.70;5.90;;;8.10;99.90;;;;;;477196;249;27612;-73
2021/04/02 02:15:00;;;;;;;11.30;5.70;;;8.10;99.90;;;;;;475082;250;27552;-73
2021/04/02 02:17:01;;;;;;;18.97;6.23;;;8.00;99.90;;;;;;477766;242;27918;-73
2021/04/02 02:19:03;;;;;;;10.63;6.43;;;7.90;99.90;;;;;;474885;249;27997;-73
2021/04/02 02:21:04;;;;;;;18.13;5.73;;;7.90;99.90;;;;;;477867;249;28056;-74
2021/04/02 02:23:05;;;;;;;12.40;5.90;;;7.80;99.90;;;;;;475288;250;27691;-73
2021/04/02 02:25:06;;;;;;;13.43;6.23;;;7.80;99.90;;;;;;477777;248;27908;-73
2021/04/02 02:27:08;;;;;;;14.00;6.43;;;7.70;99.90;;;;;;474804;249;27785;-71
2021/04/02 02:29:09;;;;;;;12.93;5.90;;;7.70;99.90;;;;;;475620;249;27965;-70
2021/04/02 02:31:10;;;;;;;10.53;5.33;;;7.70;99.90;;;;;;474222;250;28563;-71
2021/04/02 02:33:12;;;;;;;8.07;5.77;;;7.60;99.90;;;;;;477806;243;28240;-71
2021/04/02 02:35:13;;;;;;;17.80;5.70;;;7.50;99.90;;;;;;473549;249;28481;-71
2021/04/02 02:37:14;;;;;;;9.47;6.10;;;7.40;99.90;;;;;;473542;250;28089;-70
2021/04/02 02:39:15;;;;;;;8.73;5.87;;;7.40;99.90;;;;;;473512;250;28023;-73
2021/04/02 02:41:16;;;;;;;8.20;5.70;;;7.40;99.90;;;;;;473495;250;27620;-73
2021/04/02 02:43:18;;;;;;;7.50;5.40;;;7.30;99.90;;;;;;473145;250;27984;-73
2021/04/02 02:45:19;;;;;;;10.73;6.07;;;7.30;99.90;;;;;;473426;249;27989;-74
2021/04/02 02:47:20;;;;;;;10.70;6.20;;;7.30;99.90;;;;;;473494;249;28014;-71
2021/04/02 02:49:21;;;;;;;12.83;6.23;;;7.20;99.90;;;;;;473458;250;27908;-73
2021/04/02 02:51:23;;;;;;;12.80;6.77;;;7.20;99.90;;;;;;473493;250;27669;-73
2021/04/02 02:53:24;;;;;;;9.77;6.20;;;7.10;99.90;;;;;;473477;250;28220;-73
2021/04/02 02:55:25;;;;;;;9.17;5.47;;;7.10;99.90;;;;;;473494;250;28084;-70
2021/04/02 02:57:28;;;;;;;8.13;5.83;;;7.00;99.90;;;;;;473503;250;27762;-73
2021/04/02 02:59:28;;;;;;;12.47;5.80;;;7.00;99.90;;;;;;473471;250;28023;-74
2021/04/02 03:01:29;;;;;;;7.97;5.57;;;6.90;99.90;;;;;;473582;251;28661;-73
2021/04/02 03:03:30;;;;;;;15.40;6.17;;;6.90;99.90;;;;;;473594;250;28102;-74
2021/04/02 03:05:31;;;;;;;7.70;5.63;;;6.80;99.90;;;;;;473572;250;27673;-71
2021/04/02 03:07:33;;;;;;;14.03;5.80;;;6.80;99.90;;;;;;473481;250;27871;-71
2021/04/02 03:09:34;;;;;;;9.67;5.70;;;6.70;99.90;;;;;;473008;248;28149;-73
2021/04/02 03:11:35;;;;;;;10.53;6.40;;;6.80;99.90;;;;;;473454;250;28445;-73
2021/04/02 03:13:36;;;;;;;10.57;6.33;;;6.70;99.90;;;;;;473492;250;28127;-71
2021/04/02 03:15:38;;;;;;;13.47;6.20;;;6.60;99.90;;;;;;473522;251;27939;-71
2021/04/02 03:17:39;;;;;;;12.63;6.80;;;6.60;99.90;;;;;;473509;250;28021;-71
2021/04/02 03:19:40;;;;;;;9.20;6.10;;;6.70;99.90;;;;;;473547;250;28384;-71
2021/04/02 03:21:41;;;;;;;11.47;6.73;;;6.50;99.90;;;;;;473640;250;27892;-71
2021/04/02 03:23:43;;;;;;;12.17;6.80;;;6.50;99.90;;;;;;473608;249;28162;-71
2021/04/02 03:25:44;;;;;;;10.70;6.90;;;6.40;99.90;;;;;;473538;250;27928;-70
2021/04/02 03:27:45;;;;;;;9.70;6.60;;;6.30;99.90;;;;;;473489;250;28505;-70
2021/04/02 03:29:46;;;;;;;12.70;6.63;;;6.30;99.90;;;;;;473461;251;28008;-71
2021/04/02 03:31:48;;;;;;;10.37;7.10;;;6.30;99.90;;;;;;473464;250;28555;-70
2021/04/02 03:33:49;;;;;;;12.73;7.70;;;6.20;99.90;;;;;;473485;251;28648;-71
2021/04/02 03:35:50;;;;;;;13.17;7.70;;;6.20;99.90;;;;;;473515;250;29374;-71
2021/04/02 03:37:51;;;;;;;8.50;6.90;;;6.10;99.90;;;;;;473440;250;28098;-73
2021/04/02 03:39:53;;;;;;;10.23;7.20;;;6.10;99.90;;;;;;473405;250;28045;-74
2021/04/02 03:41:54;;;;;;;8.77;6.97;;;6.10;99.90;;;;;;473495;250;28416;-73
2021/04/02 03:43:55;;;;;;;10.57;8.07;;;6.10;99.90;;;;;;473477;250;28357;-73
2021/04/02 03:45:56;;;;;;;12.73;6.80;;;6.10;99.90;;;;;;473468;251;27542;-73
2021/04/02 03:47:58;;;;;;;10.00;7.80;;;6.10;99.90;;;;;;473463;250;28143;-74
2021/04/02 03:49:59;;;;;;;14.50;7.87;;;6.10;99.90;;;;;;473435;250;27902;-73
2021/04/02 03:52:00;;;;;;;13.40;8.20;;;6.10;99.90;;;;;;473476;250;28100;-73
2021/04/02 03:54:01;;;;;;;9.57;7.65;;;6.10;99.90;;;;;;473482;250;28726;-73
2021/04/02 03:56:03;;;;;;;12.30;7.47;;;6.00;99.90;;;;;;473498;250;27555;-70
2021/04/02 03:58:04;;;;;;;10.30;7.90;;;6.10;99.90;;;;;;473246;251;28422;-71
2021/04/02 04:00:05;;;;;;;12.02;7.37;;;6.10;99.90;;;;;;473514;250;29373;-70
2021/04/02 04:02:07;;;;;;;12.05;8.63;;;6.00;99.90;;;;;;473605;250;27522;-71
2021/04/02 04:04:08;;;;;;;9.13;7.40;;;6.00;99.90;;;;;;473576;250;27525;-70
2021/04/02 04:06:09;;;;;;;11.53;8.00;;;6.10;99.90;;;;;;473573;250;28880;-70
2021/04/02 04:08:10;;;;;;;11.82;7.87;;;6.00;99.90;;;;;;473600;250;28437;-70
2021/04/02 04:10:12;;;;;;;10.35;8.15;;;6.00;99.90;;;;;;473502;251;28030;-70
2021/04/02 04:12:13;;;;;;;9.90;8.37;;;6.00;99.90;;;;;;473037;250;28339;-70
2021/04/02 04:14:14;;;;;;;16.47;9.13;;;6.00;99.90;;;;;;472702;250;28720;-70
2021/04/02 04:16:15;;;;;;;11.27;8.60;;;5.90;99.90;;;;;;472698;251;29271;-73
2021/04/02 04:18:17;;;;;;;11.50;9.07;;;5.90;99.90;;;;;;472714;250;29037;-73
2021/04/02 04:20:18;;;;;;;14.10;9.70;;;5.80;99.90;;;;;;472842;250;27509;-73
2021/04/02 04:22:19;;;;;;;13.62;8.98;;;5.70;99.90;;;;;;473447;251;28018;-73
2021/04/02 04:24:20;;;;;;;10.02;8.95;;;5.80;99.90;;;;;;473470;250;27590;-72
2021/04/02 04:26:22;;;;;;;11.43;8.75;;;5.70;99.90;;;;;;473454;250;27547;-72
2021/04/02 04:28:23;;;;;;;11.57;8.23;;;5.70;99.90;;;;;;473493;250;27603;-73
2021/04/02 04:30:25;;;;;;;12.13;8.20;;;5.70;99.90;;;;;;473534;249;27506;-72
2021/04/02 04:32:25;;;;;;;10.80;8.73;;;5.70;99.90;;;;;;473517;250;28885;-72
2021/04/02 04:34:27;;;;;;;15.70;8.93;;;5.60;99.90;;;;;;473488;251;28425;-72
2021/04/02 04:36:28;;;;;;;12.15;9.80;;;5.60;99.90;;;;;;473532;251;27572;-72
2021/04/02 04:38:29;;;;;;;13.55;9.00;;;5.50;99.90;;;;;;473607;251;27525;-72
2021/04/02 04:40:30;;;;;;;11.98;8.85;;;5.50;99.90;;;;;;473608;251;27546;-72
2021/04/02 04:42:32;;;;;;;13.43;9.38;;;5.50;99.90;;;;;;473549;251;27526;-72
2021/04/02 04:44:33;;;;;;;14.80;8.77;;;5.50;99.90;;;;;;473630;251;27597;-72
2021/04/02 04:46:34;;;;;;;14.55;10.13;;;5.40;99.90;;;;;;473612;251;27972;-72
2021/04/02 04:48:35;;;;;;;12.93;9.27;;;5.40;99.90;;;;;;473609;251;27525;-72
2021/04/02 04:50:37;;;;;;;11.60;9.10;;;5.40;99.90;;;;;;473590;251;27571;-72
2021/04/02 04:52:38;;;;;;;13.10;9.05;;;5.40;99.90;;;;;;473528;251;27620;-72
2021/04/02 04:54:39;;;;;;;12.98;9.70;;;5.30;99.90;;;;;;473516;251;27532;-72
2021/04/02 04:56:41;;;;;;;15.48;9.20;;;5.30;99.90;;;;;;473517;251;27503;-72
2021/04/02 04:58:42;;;;;;;11.90;9.00;;;5.30;99.90;;;;;;473498;251;28048;-72
2021/04/02 05:00:43;;;;;;;13.80;9.40;;;5.40;99.90;;;;;;473489;251;27619;-72
2021/04/02 05:02:44;;;;;;;16.25;9.25;;;5.30;99.90;;;;;;473456;251;27612;-72
2021/04/02 05:04:46;;;;;;;16.35;9.82;;;5.30;99.90;;;;;;473459;251;27545;-73
2021/04/02 05:06:47;;;;;;;13.75;10.13;;;5.20;99.90;;;;;;473510;251;27505;-73
2021/04/02 05:08:48;;;;;;;13.50;9.20;;;5.20;99.90;;;;;;473479;251;27986;-72
2021/04/02 05:10:49;;;;;;;11.82;9.20;;;5.20;99.90;;;;;;473467;250;28031;-73
2021/04/02 05:12:51;;;;;;;15.05;9.10;;;5.20;99.90;;;;;;473457;251;27996;-72
2021/04/02 05:14:52;;;;;;;14.07;9.27;;;5.10;99.90;;;;;;473463;251;27562;-72
2021/04/02 05:16:53;;;;;;;16.52;10.05;;;5.10;99.90;;;;;;473500;251;27490;-72
2021/04/02 05:18:54;;;;;;;14.32;9.32;;;5.10;99.90;;;;;;473451;251;27541;-73
2021/04/02 05:20:56;;;;;;;11.55;9.30;;;5.20;99.90;;;;;;473432;251;28020;-72
2021/04/02 05:22:57;;;;;;;16.12;9.02;;;5.10;99.90;;;;;;473424;250;27538;-72
2021/04/02 05:24:58;;;;;;;15.20;9.15;;;5.20;99.90;;;;;;473436;251;28189;-72
2021/04/02 05:26:59;;;;;;;18.20;10.63;;;5.10;99.90;;;;;;473453;251;27539;-72
2021/04/02 05:29:01;;;;;;;13.27;9.95;;;5.00;99.90;;;;;;473439;251;27550;-72
2021/04/02 05:31:02;;;;;;;13.90;9.60;;;5.00;99.90;;;;;;473440;251;28007;-73
2021/04/02 05:33:03;;;;;;;15.05;9.88;;;5.10;99.90;;;;;;473432;251;28012;-72
2021/04/02 05:35:04;;;;;;;12.40;9.02;;;5.10;99.90;;;;;;473418;251;27518;-72
2021/04/02 05:37:06;;;;;;;13.85;10.40;;;5.00;99.90;;;;;;473415;251;27570;-73
2021/04/02 05:39:07;;;;;;;12.32;9.15;;;5.00;99.90;;;;;;473513;251;27549;-74
2021/04/02 05:41:08;;;;;;;16.83;10.15;;;5.00;99.90;;;;;;473547;251;27646;-71
2021/04/02 05:43:10;;;;;;;12.85;9.82;;;4.90;99.90;;;;;;473517;251;28172;-71
2021/04/02 05:45:11;;;;;;;17.80;10.18;;;4.90;99.90;;;;;;473424;251;27957;-71
2021/04/02 05:47:14;;;;;;;12.65;9.95;;;5.00;99.90;;;;;;473447;251;27659;-72
2021/04/02 05:49:13;;;;;;;12.75;10.10;;;5.00;99.90;;;;;;473348;250;27872;-71
2021/04/02 05:51:15;;;;;;;14.18;9.32;;;5.00;99.90;;;;;;473365;250;27552;-72
2021/04/02 05:53:16;;;;;;;14.70;10.20;;;5.10;99.90;;;;;;473434;251;27645;-72
2021/04/02 05:55:17;;;;;;;19.45;9.73;;;5.00;99.90;;;;;;473418;251;27974;-71
2021/04/02 05:57:18;;;;;;;16.10;10.35;;;5.00;99.90;;;;;;473390;251;27568;-72
2021/04/02 05:59:20;;;;;;;17.17;10.57;;;5.00;99.90;;;;;;473468;251;27517;-71
2021/04/02 06:01:21;;;;;;;11.32;8.98;;;5.10;99.90;;;;;;473544;251;27508;-71
2021/04/02 06:03:22;;;;;;;18.27;8.70;;;5.10;99.90;;;;;;473587;251;27668;-71
2021/04/02 06:05:23;;;;;;;12.98;9.70;;;5.10;99.90;;;;;;472735;251;27995;-71
2021/04/02 06:07:25;;;;;;;17.27;9.95;;;5.10;99.90;;;;;;473606;251;28043;-71
2021/04/02 06:09:26;;;;;;;13.65;9.05;;;5.10;99.90;;;;;;473578;251;27619;-71
2021/04/02 06:11:27;;;;;;;13.32;9.10;;;5.10;99.90;;;;;;473203;251;27501;-72
2021/04/02 06:13:28;;;;;;;13.90;9.45;;;5.20;99.90;;;;;;473518;251;27629;-71
2021/04/02 06:15:30;;;;;;;15.30;9.43;;;5.30;99.90;;;;;;473565;251;27578;-71
2021/04/02 06:17:31;;;;;;;19.33;10.00;;;5.40;99.90;;;;;;473422;251;28150;-71
2021/04/02 06:19:32;;;;;;;15.50;10.30;;;5.50;99.90;;;;;;473425;251;27549;-72
2021/04/02 06:21:34;;;;;;;13.40;9.27;;;5.30;99.90;;;;;;473375;251;27521;-72
2021/04/02 06:23:35;;;;;;;14.50;9.27;;;5.40;99.90;;;;;;473443;251;27548;-71
2021/04/02 06:25:36;;;;;;;13.50;9.18;;;5.50;99.90;;;;;;473454;251;27535;-72
2021/04/02 06:27:37;;;;;;;14.85;9.77;;;5.50;99.90;;;;;;473427;251;28092;-72
2021/04/02 06:29:39;;;;;;;14.82;9.68;;;5.50;99.90;;;;;;473480;251;28072;-72
2021/04/02 06:31:40;;;;;;;10.85;8.90;;;5.60;99.90;;;;;;473479;251;27500;-71
2021/04/02 06:33:41;;;;;;;10.97;8.70;;;5.60;99.90;;;;;;473488;251;27619;-73
2021/04/02 06:35:42;;;;;;;12.70;9.40;;;5.70;99.90;;;;;;473437;251;28259;-73
2021/04/02 06:37:45;;;;;;;9.40;8.00;;;5.80;99.90;;;;;;473441;251;27557;-71
2021/04/02 06:39:45;;;;;;;10.33;9.20;;;6.00;99.90;;;;;;473410;251;28447;-73
2021/04/02 06:41:47;;;;;;;10.00;7.97;;;6.00;99.90;;;;;;473461;251;29573;-71
2021/04/02 06:43:47;;;;;;;12.90;8.87;;;6.10;99.90;;;;;;473403;251;28222;-71
2021/04/02 06:45:49;;;;;;;14.80;8.80;;;6.10;99.90;;;;;;473443;251;28515;-71
2021/04/02 06:47:50;;;;;;;13.43;8.90;;;6.00;99.90;;;;;;473429;251;27991;-71
2021/04/02 06:49:51;;;;;;;14.50;9.67;;;6.10;99.90;;;;;;473441;251;27793;-73
2021/04/02 06:51:52;;;;;;;11.97;9.07;;;6.20;99.90;;;;;;473467;251;28209;-73
2021/04/02 06:53:54;;;;;;;10.57;8.83;;;6.10;99.90;;;;;;473470;251;28136;-74
2021/04/02 06:55:55;;;;;;;14.07;9.00;;;5.90;99.90;;;;;;473458;251;28112;-73
2021/04/02 06:57:56;;;;;;;14.33;9.70;;;6.10;99.90;;;;;;473466;251;27773;-73
2021/04/02 06:59:57;;;;;;;10.53;8.40;;;6.10;99.90;;;;;;473463;251;28205;-73
2021/04/02 07:01:59;;;;;;;13.33;9.10;;;6.10;99.90;;;;;;473478;251;28018;-71
2021/04/02 07:04:00;;;;;;;13.90;9.00;;;6.00;99.90;;;;;;473478;251;28498;-73
2021/04/02 07:06:01;;;;;;;9.80;8.77;;;6.00;99.90;;;;;;473492;251;28356;-71
2021/04/02 07:08:02;;;;;;;13.30;9.07;;;6.20;99.90;;;;;;473625;251;28691;-71
2021/04/02 07:10:04;;;;;;;12.63;8.70;;;6.20;99.90;;;;;;473588;251;28560;-73
2021/04/02 07:12:05;;;;;;;12.47;9.57;;;6.10;99.90;;;;;;473549;251;28027;-73
2021/04/02 07:14:09;;;;;;;9.90;8.33;;;6.20;99.90;;;;;;473488;251;28008;-73
2021/04/02 07:16:07;;;;;;;10.47;8.70;;;6.30;99.90;;;;;;473317;251;27980;-73
2021/04/02 07:18:10;;;;;;;13.27;8.63;;;6.30;99.90;;;;;;473476;251;27858;-73
2021/04/02 07:20:10;;;;;;;9.73;8.37;;;6.40;99.90;;;;;;473445;250;27983;-73
2021/04/02 07:22:11;;;;;;;9.30;7.80;;;6.50;99.90;;;;;;473528;251;28017;-73
2021/04/02 07:24:12;;;;;;;10.77;8.53;;;6.50;99.90;;;;;;473589;251;27763;-73
2021/04/02 07:26:14;;;;;;;9.50;8.30;;;6.70;99.90;;;;;;473597;251;28010;-71
2021/04/02 07:28:15;;;;;;;9.77;8.00;;;6.70;99.90;;;;;;473632;251;28022;-73
2021/04/02 07:30:16;;;;;;;9.07;8.17;;;6.90;99.90;;;;;;473636;251;28034;-73
2021/04/02 07:32:17;;;;;;;9.50;8.40;;;7.10;99.90;;;;;;473613;251;28032;-73
2021/04/02 07:34:19;;;;;;;9.13;7.97;;;7.00;99.90;;;;;;473666;251;28012;-73
2021/04/02 07:36:21;;;;;;;10.37;7.93;;;7.10;99.90;;;;;;473604;251;28513;-73
2021/04/02 07:38:21;;;;;;;12.50;8.77;;;7.10;99.90;;;;;;473516;250;28237;-74
2021/04/02 07:40:22;;;;;;;10.67;8.20;;;7.00;99.90;;;;;;473454;251;28623;-73
2021/04/02 07:42:24;;;;;;;14.20;8.90;;;6.80;99.90;;;;;;473477;251;27661;-73
2021/04/02 07:44:25;;;;;;;13.57;9.03;;;7.00;99.90;;;;;;473468;251;27766;-73
2021/04/02 07:46:27;;;;;;;12.70;10.10;;;7.00;99.90;;;;;;473492;251;27813;-73
2021/04/02 07:48:27;;;;;;;10.70;8.20;;;7.00;99.90;;;;;;473442;251;28500;-73
2021/04/02 07:50:29;;;;;;;11.27;8.87;;;7.00;99.90;;;;;;473571;251;27997;-73
2021/04/02 07:52:30;;;;;;;9.90;8.70;;;7.10;99.90;;;;;;473564;251;28021;-73
2021/04/02 07:54:32;;;;;;;9.43;8.43;;;7.10;99.90;;;;;;473582;251;28019;-73
2021/04/02 07:56:32;;;;;;;10.73;9.23;;;7.20;99.90;;;;;;473575;251;27781;-73
2021/04/02 07:58:34;;;;;;;9.87;7.87;;;7.30;99.90;;;;;;473414;251;28029;-73
2021/04/02 08:00:35;;;;;;;11.70;8.27;;;7.40;99.90;;;;;;473619;251;27843;-73
2021/04/02 08:02:36;;;;;;;10.13;8.60;;;7.60;99.90;;;;;;473531;251;28483;-73
2021/04/02 08:04:37;;;;;;;10.57;8.10;;;7.40;99.90;;;;;;473603;251;28501;-73
2021/04/02 08:06:39;;;;;;;10.90;8.13;;;7.20;99.90;;;;;;473573;251;28489;-73
2021/04/02 08:08:40;;;;;;;9.70;7.83;;;7.40;99.90;;;;;;473516;251;27913;-73
2021/04/02 08:10:41;;;;;;;9.90;7.73;;;7.20;99.90;;;;;;473087;251;27785;-73
2021/04/02 08:12:42;;;;;;;9.90;7.80;;;7.20;99.90;;;;;;473463;251;28146;-73
2021/04/02 08:14:44;;;;;;;9.20;8.03;;;7.40;99.90;;;;;;473463;251;28193;-73
2021/04/02 08:16:46;;;;;;;13.13;7.70;;;7.60;99.90;;;;;;473649;251;28111;-74
2021/04/02 08:18:46;;;;;;;13.13;7.90;;;8.00;99.90;;;;;;473420;251;27787;-73
2021/04/02 08:20:47;;;;;;;11.40;7.80;;;7.80;99.90;;;;;;473474;251;27960;-73
2021/04/02 08:22:49;;;;;;;11.83;7.70;;;7.70;99.90;;;;;;473472;251;28019;-73
2021/04/02 08:24:50;;;;;;;11.93;8.33;;;7.80;99.90;;;;;;473453;251;28032;-74
2021/04/02 08:26:51;;;;;;;8.40;7.53;;;7.80;99.90;;;;;;473478;251;28016;-73
2021/04/02 08:28:52;;;;;;;8.73;7.50;;;7.60;99.90;;;;;;473491;251;28021;-73
2021/04/02 08:30:54;;;;;;;10.50;7.90;;;7.60;99.90;;;;;;473490;251;28479;-73
2021/04/02 08:32:56;;;;;;;9.23;7.77;;;7.60;99.90;;;;;;473482;251;28554;-73
2021/04/02 08:34:56;;;;;;;9.90;7.80;;;7.50;99.90;;;;;;473451;251;28363;-73
2021/04/02 08:36:57;;;;;;;10.27;8.30;;;7.70;99.90;;;;;;473523;251;28531;-73
2021/04/02 08:38:59;;;;;;;10.83;8.33;;;7.80;99.90;;;;;;473576;251;28073;-73
2021/04/02 08:41:00;;;;;;;11.90;7.93;;;7.80;99.90;;;;;;473648;251;28010;-73
2021/04/02 08:43:01;;;;;;;8.70;7.70;;;7.70;99.90;;;;;;473654;251;27987;-73
2021/04/02 08:45:02;;;;;;;9.63;8.53;;;7.80;99.90;;;;;;473658;251;28151;-73
2021/04/02 08:47:04;;;;;;;9.70;8.27;;;7.90;99.90;;;;;;473632;251;28107;-73
2021/04/02 08:49:05;;;;;;;9.77;8.10;;;7.90;99.90;;;;;;473634;251;27825;-73
2021/04/02 08:51:06;;;;;;;12.70;8.80;;;7.80;99.90;;;;;;473588;251;27762;-73
2021/04/02 08:53:09;;;;;;;10.13;8.43;;;7.80;99.90;;;;;;473550;251;28113;-73
2021/04/02 08:55:09;;;;;;;9.07;7.90;;;7.70;99.90;;;;;;473393;250;28031;-73
2021/04/02 08:57:10;;;;;;;9.67;7.20;;;7.70;99.90;;;;;;473518;251;27916;-73
2021/04/02 08:59:12;;;;;;;8.97;7.60;;;7.80;99.90;;;;;;473523;251;27957;-73
2021/04/02 09:01:12;;;;;;;10.40;8.50;;;7.90;99.90;;;;;;473391;250;28495;-74
2021/04/02 09:03:14;;;;;;;9.50;8.10;;;7.80;99.90;;;;;;473444;251;28703;-73
2021/04/02 09:05:15;;;;;;;13.33;8.10;;;7.90;99.90;;;;;;473389;251;28159;-73
2021/04/02 09:07:16;;;;;;;11.67;8.20;;;7.90;99.90;;;;;;473457;251;28696;-74
2021/04/02 09:09:17;;;;;;;9.83;7.40;;;7.90;99.90;;;;;;473517;251;28059;-73
2021/04/02 09:11:19;;;;;;;9.90;8.50;;;7.80;99.90;;;;;;473489;251;27874;-74
2021/04/02 09:13:20;;;;;;;8.37;7.50;;;7.80;99.90;;;;;;473517;251;28028;-73
2021/04/02 09:15:21;;;;;;;9.60;7.60;;;7.50;99.90;;;;;;473455;251;27876;-73
2021/04/02 09:17:22;;;;;;;8.63;7.13;;;7.70;99.90;;;;;;473454;251;27985;-74
2021/04/02 09:19:24;;;;;;;10.63;8.20;;;7.80;99.90;;;;;;473473;251;27761;-73
2021/04/02 09:21:25;;;;;;;7.93;7.13;;;7.80;99.90;;;;;;473439;251;27964;-73
2021/04/02 09:23:26;;;;;;;9.10;8.10;;;8.00;99.90;;;;;;473438;251;28015;-72
2021/04/02 09:25:27;;;;;;;11.10;8.40;;;7.90;99.90;;;;;;473434;251;27886;-72
2021/04/02 09:27:29;;;;;;;9.00;7.73;;;8.00;99.90;;;;;;473462;251;28143;-73
2021/04/02 09:29:30;;;;;;;8.30;7.03;;;8.00;99.90;;;;;;473494;251;27848;-72
2021/04/02 09:31:32;;;;;;;9.77;8.60;;;8.00;99.90;;;;;;473489;251;28126;-72
2021/04/02 09:33:32;;;;;;;8.80;7.10;;;8.00;99.90;;;;;;473620;251;27876;-72
2021/04/02 09:35:34;;;;;;;13.43;8.07;;;8.10;99.90;;;;;;473555;251;28053;-72
2021/04/02 09:37:35;;;;;;;9.30;8.40;;;7.80;99.90;;;;;;473368;251;28767;-72
2021/04/02 09:39:39;;;;;;;9.80;8.23;;;7.70;99.90;;;;;;473532;251;28226;-72
2021/04/02 09:41:40;;;;;;;8.70;7.73;;;8.10;99.90;;;;;;473452;251;28490;-72
2021/04/02 09:43:42;;;;;;;10.13;8.27;;;8.30;99.90;;;;;;473448;251;28510;-73
2021/04/02 09:45:43;;;;;;;9.90;8.20;;;8.60;99.90;;;;;;473440;251;28044;-72
2021/04/02 09:47:44;;;;;;;8.80;7.40;;;8.60;99.90;;;;;;473440;251;28109;-72
2021/04/02 09:49:46;;;;;;;8.47;7.57;;;8.60;99.90;;;;;;473485;251;28073;-72
2021/04/02 09:51:47;;;;;;;8.80;7.73;;;8.30;99.90;;;;;;473403;251;27641;-73
2021/04/02 09:53:48;;;;;;;11.07;8.17;;;8.50;99.90;;;;;;473454;251;28096;-72
2021/04/02 09:55:49;;;;;;;11.30;7.70;;;8.50;99.90;;;;;;473420;251;28019;-73
2021/04/02 09:57:50;;;;;;;8.50;7.63;;;8.60;99.90;;;;;;473473;251;27803;-73
2021/04/02 09:59:52;;;;;;;10.07;7.70;;;8.50;99.90;;;;;;473414;251;27944;-72
2021/04/02 10:01:53;;;;;;;10.03;7.87;;;8.20;99.90;;;;;;473383;251;28040;-72
2021/04/02 10:03:54;;;;;;;9.50;7.23;;;8.50;99.90;;;;;;473449;251;28471;-72
2021/04/02 10:05:55;;;;;;;8.27;7.17;;;8.70;99.90;;;;;;473456;251;28455;-73
2021/04/02 10:07:57;;;;;;;9.87;7.80;;;8.70;99.90;;;;;;473491;251;28669;-72
2021/04/02 10:09:58;;;;;;;7.73;7.00;;;8.60;99.90;;;;;;473546;251;28540;-72
2021/04/02 10:11:59;;;;;;;12.00;7.73;;;8.60;99.90;;;;;;473543;251;28431;-73
2021/04/02 10:14:00;;;;;;;9.97;7.37;;;8.60;99.90;;;;;;473596;251;27993;-72
2021/04/02 10:16:02;;;;;;;9.63;6.97;;;9.00;99.90;;;;;;473091;251;28083;-72
2021/04/02 10:18:03;;;;;;;9.13;7.40;;;9.40;99.90;;;;;;473583;251;28221;-72
2021/04/02 10:20:04;;;;;;;9.13;7.37;;;9.70;99.90;;;;;;473655;251;27934;-73
2021/04/02 10:22:05;;;;;;;7.37;6.63;;;9.50;99.90;;;;;;473638;251;28149;-73
2021/04/02 10:24:07;;;;;;;7.20;6.23;;;9.30;99.90;;;;;;473631;251;28392;-72
2021/04/02 10:26:08;;;;;;;8.50;6.70;;;9.70;99.90;;;;;;473611;251;28077;-73
2021/04/02 10:28:09;;;;;;;7.93;7.00;;;9.70;99.90;;;;;;473567;251;28148;-73
2021/04/02 10:30:10;;;;;;;7.30;6.40;;;9.60;99.90;;;;;;473509;251;28087;-72
2021/04/02 10:32:12;;;;;;;8.27;7.47;;;9.00;99.90;;;;;;473476;251;28257;-73